sensor_id;sensor_type;location;lat;lon;timestamp;temperature;humidity
29777;DHT22;16677;52.224;7.484;2023-07-24T00:02:02;18.80;99.90
29777;DHT22;16677;52.224;7.484;2023-07-24T00:04:31;18.80;99.90
29777;DHT22;16677;52.224;7.484;2023-07-24T00:06:59;18.70;99.90
29777;DHT22;16677;52.224;7.484;2023-07-24T00:09:27;18.70;99.90
29777;DHT22;16677;52.224;7.484;2023-07-24T00:11:54;18.70;99.90
29777;DHT22;16677;52.224;7.484;2023-07-24T00:14:22;18.60;99.90
29777;DHT22;16677;52.224;7.484;2023-07-24T00:16:49;18.60;99.90
29777;DHT22;16677;52.224;7.484;2023-07-24T00:19:17;18.50;99.90
29777;DHT22;16677;52.224;7.484;2023-07-24T00:21:44;18.50;99.90
29777;DHT22;16677;52.224;7.484;2023-07-24T00:24:12;18.40;99.90
29777;DHT22;16677;52.224;7.484;2023-07-24T00:29:14;18.40;99.90
29777;DHT22;16677;52.224;7.484;2023-07-24T00:31:42;18.40;99.90
29777;DHT22;16677;52.224;7.484;2023-07-24T00:34:10;18.40;99.90
29777;DHT22;16677;52.224;7.484;2023-07-24T00:36:38;18.40;99.90
29777;DHT22;16677;52.224;7.484;2023-07-24T00:39:05;18.40;99.90
29777;DHT22;16677;52.224;7.484;2023-07-24T00:41:33;18.50;99.90
29777;DHT22;16677;52.224;7.484;2023-07-24T00:44:00;18.40;99.90
29777;DHT22;16677;52.224;7.484;2023-07-24T00:46:28;18.40;99.90
29777;DHT22;16677;52.224;7.484;2023-07-24T00:49:01;18.50;99.90
29777;DHT22;16677;52.224;7.484;2023-07-24T00:51:31;18.40;99.90
29777;DHT22;16677;52.224;7.484;2023-07-24T00:54:02;18.40;99.90
29777;DHT22;16677;52.224;7.484;2023-07-24T00:56:30;18.40;99.90
29777;DHT22;16677;52.224;7.484;2023-07-24T00:59:00;18.40;99.90
29777;DHT22;16677;52.224;7.484;2023-07-24T01:01:28;18.60;99.90
29777;DHT22;16677;52.224;7.484;2023-07-24T01:03:57;18.50;99.90
29777;DHT22;16677;52.224;7.484;2023-07-24T01:06:25;18.50;99.90
29777;DHT22;16677;52.224;7.484;2023-07-24T01:08:54;18.50;99.90
29777;DHT22;16677;52.224;7.484;2023-07-24T01:11:27;18.70;99.90
29777;DHT22;16677;52.224;7.484;2023-07-24T01:14:24;18.60;99.90
29777;DHT22;16677;52.224;7.484;2023-07-24T01:16:59;18.70;99.90
29777;DHT22;16677;52.224;7.484;2023-07-24T01:19:38;18.70;99.90
29777;DHT22;16677;52.224;7.484;2023-07-24T01:25:15;18.70;99.90
29777;DHT22;16677;52.224;7.484;2023-07-24T01:27:50;18.80;99.90
29777;DHT22;16677;52.224;7.484;2023-07-24T01:30:20;18.70;99.90
29777;DHT22;16677;52.224;7.484;2023-07-24T01:32:48;18.80;99.90
29777;DHT22;16677;52.224;7.484;2023-07-24T01:35:17;18.80;99.90
29777;DHT22;16677;52.224;7.484;2023-07-24T01:37:46;18.80;99.90
29777;DHT22;16677;52.224;7.484;2023-07-24T01:40:14;18.70;99.90
29777;DHT22;16677;52.224;7.484;2023-07-24T01:42:42;18.70;99.90
29777;DHT22;16677;52.224;7.484;2023-07-24T01:45:10;18.70;99.90
29777;DHT22;16677;52.224;7.484;2023-07-24T01:47:38;18.70;99.90
29777;DHT22;16677;52.224;7.484;2023-07-24T01:50:06;18.80;99.90
29777;DHT22;16677;52.224;7.484;2023-07-24T01:52:34;18.70;99.90
29777;DHT22;16677;52.224;7.484;2023-07-24T01:55:01;18.80;99.90
29777;DHT22;16677;52.224;7.484;2023-07-24T01:57:28;18.80;99.90
29777;DHT22;16677;52.224;7.484;2023-07-24T01:59:56;18.80;99.90
29777;DHT22;16677;52.224;7.484;2023-07-24T02:02:24;18.80;99.90
29777;DHT22;16677;52.224;7.484;2023-07-24T02:04:51;18.80;99.90
29777;DHT22;16677;52.224;7.484;2023-07-24T02:07:19;19.00;99.90
29777;DHT22;16677;52.224;7.484;2023-07-24T02:09:46;18.90;99.90
29777;DHT22;16677;52.224;7.484;2023-07-24T02:12:13;18.80;99.90
29777;DHT22;16677;52.224;7.484;2023-07-24T02:14:40;18.70;99.90
29777;DHT22;16677;52.224;7.484;2023-07-24T02:17:08;18.70;99.90
29777;DHT22;16677;52.224;7.484;2023-07-24T02:19:35;18.70;99.90
29777;DHT22;16677;52.224;7.484;2023-07-24T02:22:02;18.80;99.90
29777;DHT22;16677;52.224;7.484;2023-07-24T02:24:31;18.90;99.90
29777;DHT22;16677;52.224;7.484;2023-07-24T02:26:58;18.80;99.90
29777;DHT22;16677;52.224;7.484;2023-07-24T02:29:26;18.80;99.90
29777;DHT22;16677;52.224;7.484;2023-07-24T02:31:55;18.80;99.90
29777;DHT22;16677;52.224;7.484;2023-07-24T02:34:22;18.80;99.90
29777;DHT22;16677;52.224;7.484;2023-07-24T02:36:53;18.70;99.90
29777;DHT22;16677;52.224;7.484;2023-07-24T02:39:21;18.80;99.90
29777;DHT22;16677;52.224;7.484;2023-07-24T02:41:48;18.70;99.90
29777;DHT22;16677;52.224;7.484;2023-07-24T02:44:16;18.70;99.90
29777;DHT22;16677;52.224;7.484;2023-07-24T02:46:43;18.80;99.90
29777;DHT22;16677;52.224;7.484;2023-07-24T02:49:11;18.60;99.90
29777;DHT22;16677;52.224;7.484;2023-07-24T02:51:38;18.60;99.90
29777;DHT22;16677;52.224;7.484;2023-07-24T02:54:05;18.60;99.90
29777;DHT22;16677;52.224;7.484;2023-07-24T02:56:33;18.50;99.90
29777;DHT22;16677;52.224;7.484;2023-07-24T02:59:02;18.50;99.90
29777;DHT22;16677;52.224;7.484;2023-07-24T03:01:29;18.60;99.90
29777;DHT22;16677;52.224;7.484;2023-07-24T03:03:57;18.50;99.90
29777;DHT22;16677;52.224;7.484;2023-07-24T03:06:25;18.50;99.90
29777;DHT22;16677;52.224;7.484;2023-07-24T03:08:52;18.50;99.90
29777;DHT22;16677;52.224;7.484;2023-07-24T03:11:19;18.50;99.90
29777;DHT22;16677;52.224;7.484;2023-07-24T03:13:48;18.50;99.90
29777;DHT22;16677;52.224;7.484;2023-07-24T03:16:15;18.50;99.90
29777;DHT22;16677;52.224;7.484;2023-07-24T03:18:44;18.50;99.90
29777;DHT22;16677;52.224;7.484;2023-07-24T03:21:11;18.50;99.90
29777;DHT22;16677;52.224;7.484;2023-07-24T03:23:38;18.40;99.90
29777;DHT22;16677;52.224;7.484;2023-07-24T03:26:05;18.40;99.90
29777;DHT22;16677;52.224;7.484;2023-07-24T03:28:32;18.50;99.90
29777;DHT22;16677;52.224;7.484;2023-07-24T03:30:59;18.40;99.90
29777;DHT22;16677;52.224;7.484;2023-07-24T03:33:26;18.40;99.90
29777;DHT22;16677;52.224;7.484;2023-07-24T03:35:54;18.40;99.90
29777;DHT22;16677;52.224;7.484;2023-07-24T03:38:21;18.40;99.90
29777;DHT22;16677;52.224;7.484;2023-07-24T03:40:50;18.40;99.90
29777;DHT22;16677;52.224;7.484;2023-07-24T03:43:17;18.30;99.90
29777;DHT22;16677;52.224;7.484;2023-07-24T03:45:44;18.10;99.90
29777;DHT22;16677;52.224;7.484;2023-07-24T03:48:12;18.20;99.90
29777;DHT22;16677;52.224;7.484;2023-07-24T03:50:40;18.20;99.90
29777;DHT22;16677;52.224;7.484;2023-07-24T03:53:07;18.30;99.90
29777;DHT22;16677;52.224;7.484;2023-07-24T03:55:36;18.40;99.90
29777;DHT22;16677;52.224;7.484;2023-07-24T03:58:04;18.40;99.90
29777;DHT22;16677;52.224;7.484;2023-07-24T04:00:32;18.30;99.90
29777;DHT22;16677;52.224;7.484;2023-07-24T04:02:59;18.30;99.90
29777;DHT22;16677;52.224;7.484;2023-07-24T04:05:26;18.30;99.90
29777;DHT22;16677;52.224;7.484;2023-07-24T04:07:54;18.40;99.90
29777;DHT22;16677;52.224;7.484;2023-07-24T04:10:21;18.40;99.90
29777;DHT22;16677;52.224;7.484;2023-07-24T04:12:49;18.40;99.90
29777;DHT22;16677;52.224;7.484;2023-07-24T04:15:17;18.40;99.90
29777;DHT22;16677;52.224;7.484;2023-07-24T04:17:44;18.60;99.90
29777;DHT22;16677;52.224;7.484;2023-07-24T04:20:11;18.40;99.90
29777;DHT22;16677;52.224;7.484;2023-07-24T04:22:38;18.60;99.90
29777;DHT22;16677;52.224;7.484;2023-07-24T04:25:06;18.80;99.90
29777;DHT22;16677;52.224;7.484;2023-07-24T04:27:34;18.90;99.90
29777;DHT22;16677;52.224;7.484;2023-07-24T04:30:02;18.90;99.90
29777;DHT22;16677;52.224;7.484;2023-07-24T04:32:29;18.90;99.90
29777;DHT22;16677;52.224;7.484;2023-07-24T04:34:57;18.70;99.90
29777;DHT22;16677;52.224;7.484;2023-07-24T04:37:27;18.50;99.90
29777;DHT22;16677;52.224;7.484;2023-07-24T04:39:55;18.60;99.90
29777;DHT22;16677;52.224;7.484;2023-07-24T04:42:23;18.50;99.90
29777;DHT22;16677;52.224;7.484;2023-07-24T04:44:50;18.50;99.90
29777;DHT22;16677;52.224;7.484;2023-07-24T04:47:22;18.60;99.90
29777;DHT22;16677;52.224;7.484;2023-07-24T04:49:49;18.50;99.90
29777;DHT22;16677;52.224;7.484;2023-07-24T04:52:16;18.50;99.90
29777;DHT22;16677;52.224;7.484;2023-07-24T04:54:44;18.30;99.90
29777;DHT22;16677;52.224;7.484;2023-07-24T04:57:11;18.40;99.90
29777;DHT22;16677;52.224;7.484;2023-07-24T04:59:38;18.60;99.90
29777;DHT22;16677;52.224;7.484;2023-07-24T05:02:06;18.70;99.90
29777;DHT22;16677;52.224;7.484;2023-07-24T05:04:34;18.70;99.90
29777;DHT22;16677;52.224;7.484;2023-07-24T05:07:01;18.60;99.90
29777;DHT22;16677;52.224;7.484;2023-07-24T05:09:29;18.60;99.90
29777;DHT22;16677;52.224;7.484;2023-07-24T05:11:56;18.70;99.90
29777;DHT22;16677;52.224;7.484;2023-07-24T05:14:23;18.70;99.90
29777;DHT22;16677;52.224;7.484;2023-07-24T05:16:51;18.70;99.90
29777;DHT22;16677;52.224;7.484;2023-07-24T05:19:18;18.80;99.90
29777;DHT22;16677;52.224;7.484;2023-07-24T05:21:45;18.60;99.90
29777;DHT22;16677;52.224;7.484;2023-07-24T05:24:12;18.60;99.90
29777;DHT22;16677;52.224;7.484;2023-07-24T05:26:40;18.60;99.90
29777;DHT22;16677;52.224;7.484;2023-07-24T05:29:07;18.50;99.90
29777;DHT22;16677;52.224;7.484;2023-07-24T05:31:35;18.30;99.90
29777;DHT22;16677;52.224;7.484;2023-07-24T05:34:03;18.30;99.90
29777;DHT22;16677;52.224;7.484;2023-07-24T05:36:31;18.30;99.90
29777;DHT22;16677;52.224;7.484;2023-07-24T05:38:58;18.40;99.90
29777;DHT22;16677;52.224;7.484;2023-07-24T05:41:26;18.30;99.90
29777;DHT22;16677;52.224;7.484;2023-07-24T05:43:53;18.40;99.90
29777;DHT22;16677;52.224;7.484;2023-07-24T05:46:22;18.40;99.90
29777;DHT22;16677;52.224;7.484;2023-07-24T05:48:49;18.40;99.90
29777;DHT22;16677;52.224;7.484;2023-07-24T05:51:17;18.40;99.90
29777;DHT22;16677;52.224;7.484;2023-07-24T05:53:44;18.30;99.90
29777;DHT22;16677;52.224;7.484;2023-07-24T05:56:11;18.30;99.90
29777;DHT22;16677;52.224;7.484;2023-07-24T05:58:39;18.40;99.90
29777;DHT22;16677;52.224;7.484;2023-07-24T06:01:06;18.30;99.90
29777;DHT22;16677;52.224;7.484;2023-07-24T06:03:36;18.30;99.90
29777;DHT22;16677;52.224;7.484;2023-07-24T06:06:05;18.30;99.90
29777;DHT22;16677;52.224;7.484;2023-07-24T06:08:32;18.20;99.90
29777;DHT22;16677;52.224;7.484;2023-07-24T06:11:00;18.20;99.90
29777;DHT22;16677;52.224;7.484;2023-07-24T06:13:27;18.20;99.90
29777;DHT22;16677;52.224;7.484;2023-07-24T06:15:54;18.10;99.90
29777;DHT22;16677;52.224;7.484;2023-07-24T06:18:21;18.10;99.90
29777;DHT22;16677;52.224;7.484;2023-07-24T06:20:52;18.10;99.90
29777;DHT22;16677;52.224;7.484;2023-07-24T06:23:20;17.90;99.90
29777;DHT22;16677;52.224;7.484;2023-07-24T06:25:47;18.00;99.90
29777;DHT22;16677;52.224;7.484;2023-07-24T06:28:17;17.90;99.90
29777;DHT22;16677;52.224;7.484;2023-07-24T06:30:45;18.00;99.90
29777;DHT22;16677;52.224;7.484;2023-07-24T06:33:12;17.70;99.90
29777;DHT22;16677;52.224;7.484;2023-07-24T06:35:40;17.70;99.90
29777;DHT22;16677;52.224;7.484;2023-07-24T06:38:07;17.70;99.90
29777;DHT22;16677;52.224;7.484;2023-07-24T06:40:35;17.50;99.90
29777;DHT22;16677;52.224;7.484;2023-07-24T06:43:03;17.60;99.90
29777;DHT22;16677;52.224;7.484;2023-07-24T06:45:30;17.60;99.90
29777;DHT22;16677;52.224;7.484;2023-07-24T06:47:58;17.60;99.90
29777;DHT22;16677;52.224;7.484;2023-07-24T06:50:25;17.80;99.90
29777;DHT22;16677;52.224;7.484;2023-07-24T06:52:53;17.80;99.90
29777;DHT22;16677;52.224;7.484;2023-07-24T06:55:25;17.90;99.90
29777;DHT22;16677;52.224;7.484;2023-07-24T06:57:53;18.00;99.90
29777;DHT22;16677;52.224;7.484;2023-07-24T07:00:20;18.00;99.90
29777;DHT22;16677;52.224;7.484;2023-07-24T07:02:48;18.10;99.90
29777;DHT22;16677;52.224;7.484;2023-07-24T07:05:15;18.10;99.90
29777;DHT22;16677;52.224;7.484;2023-07-24T07:07:42;18.10;99.90
29777;DHT22;16677;52.224;7.484;2023-07-24T07:10:12;18.30;99.90
29777;DHT22;16677;52.224;7.484;2023-07-24T07:12:42;18.30;99.90
29777;DHT22;16677;52.224;7.484;2023-07-24T07:15:09;18.20;99.90
29777;DHT22;16677;52.224;7.484;2023-07-24T07:17:36;18.20;99.90
29777;DHT22;16677;52.224;7.484;2023-07-24T07:20:06;18.30;99.90
29777;DHT22;16677;52.224;7.484;2023-07-24T07:22:34;18.50;99.90
29777;DHT22;16677;52.224;7.484;2023-07-24T07:25:01;18.60;99.90
29777;DHT22;16677;52.224;7.484;2023-07-24T07:27:29;18.70;99.90
29777;DHT22;16677;52.224;7.484;2023-07-24T07:29:56;18.90;99.90
29777;DHT22;16677;52.224;7.484;2023-07-24T07:32:23;19.40;99.90
29777;DHT22;16677;52.224;7.484;2023-07-24T07:34:50;19.70;99.90
29777;DHT22;16677;52.224;7.484;2023-07-24T07:37:18;19.40;99.90
29777;DHT22;16677;52.224;7.484;2023-07-24T07:39:46;19.40;99.90
29777;DHT22;16677;52.224;7.484;2023-07-24T07:42:13;19.60;99.90
29777;DHT22;16677;52.224;7.484;2023-07-24T07:44:44;19.50;99.90
29777;DHT22;16677;52.224;7.484;2023-07-24T07:47:12;19.50;99.90
29777;DHT22;16677;52.224;7.484;2023-07-24T07:49:39;19.40;99.90
29777;DHT22;16677;52.224;7.484;2023-07-24T07:52:07;19.20;99.90
29777;DHT22;16677;52.224;7.484;2023-07-24T07:54:36;19.30;99.90
29777;DHT22;16677;52.224;7.484;2023-07-24T07:57:03;19.30;99.90
29777;DHT22;16677;52.224;7.484;2023-07-24T07:59:31;19.30;99.90
29777;DHT22;16677;52.224;7.484;2023-07-24T08:01:58;19.00;99.90
29777;DHT22;16677;52.224;7.484;2023-07-24T08:04:26;18.90;99.90
29777;DHT22;16677;52.224;7.484;2023-07-24T08:06:53;18.80;99.90
29777;DHT22;16677;52.224;7.484;2023-07-24T08:09:20;18.90;99.90
29777;DHT22;16677;52.224;7.484;2023-07-24T08:11:48;19.10;99.90
29777;DHT22;16677;52.224;7.484;2023-07-24T08:14:15;19.00;99.90
29777;DHT22;16677;52.224;7.484;2023-07-24T08:16:42;19.20;99.90
29777;DHT22;16677;52.224;7.484;2023-07-24T08:19:16;19.50;99.90
29777;DHT22;16677;52.224;7.484;2023-07-24T08:21:43;19.40;99.90
29777;DHT22;16677;52.224;7.484;2023-07-24T08:24:11;19.80;99.90
29777;DHT22;16677;52.224;7.484;2023-07-24T08:26:39;20.30;99.90
29777;DHT22;16677;52.224;7.484;2023-07-24T08:29:06;20.60;99.90
29777;DHT22;16677;52.224;7.484;2023-07-24T08:31:34;20.30;99.90
29777;DHT22;16677;52.224;7.484;2023-07-24T08:34:02;20.10;99.90
29777;DHT22;16677;52.224;7.484;2023-07-24T08:36:29;20.10;99.90
29777;DHT22;16677;52.224;7.484;2023-07-24T08:38:57;20.20;99.90
29777;DHT22;16677;52.224;7.484;2023-07-24T08:41:24;20.40;99.90
29777;DHT22;16677;52.224;7.484;2023-07-24T08:43:51;20.30;99.90
29777;DHT22;16677;52.224;7.484;2023-07-24T08:46:21;20.40;99.90
29777;DHT22;16677;52.224;7.484;2023-07-24T08:48:48;20.20;99.90
29777;DHT22;16677;52.224;7.484;2023-07-24T08:51:16;20.10;99.90
29777;DHT22;16677;52.224;7.484;2023-07-24T08:53:45;20.20;99.90
29777;DHT22;16677;52.224;7.484;2023-07-24T08:56:13;20.10;99.90
29777;DHT22;16677;52.224;7.484;2023-07-24T08:58:41;20.20;99.90
29777;DHT22;16677;52.224;7.484;2023-07-24T09:01:08;20.30;99.90
29777;DHT22;16677;52.224;7.484;2023-07-24T09:03:36;20.00;99.90
29777;DHT22;16677;52.224;7.484;2023-07-24T09:06:04;19.90;99.90
29777;DHT22;16677;52.224;7.484;2023-07-24T09:11:02;20.80;99.90
29777;DHT22;16677;52.224;7.484;2023-07-24T09:13:30;20.80;99.90
29777;DHT22;16677;52.224;7.484;2023-07-24T09:15:58;20.90;99.90
29777;DHT22;16677;52.224;7.484;2023-07-24T09:18:38;20.70;99.90
29777;DHT22;16677;52.224;7.484;2023-07-24T09:21:10;20.70;99.90
29777;DHT22;16677;52.224;7.484;2023-07-24T09:23:41;20.90;1.00
29777;DHT22;16677;52.224;7.484;2023-07-24T09:26:10;20.90;1.00
29777;DHT22;16677;52.224;7.484;2023-07-24T09:28:37;20.80;1.00
29777;DHT22;16677;52.224;7.484;2023-07-24T09:31:04;20.90;1.00
29777;DHT22;16677;52.224;7.484;2023-07-24T09:33:38;21.00;1.00
29777;DHT22;16677;52.224;7.484;2023-07-24T09:36:07;20.80;1.00
29777;DHT22;16677;52.224;7.484;2023-07-24T09:38:35;20.70;1.00
29777;DHT22;16677;52.224;7.484;2023-07-24T09:41:04;20.70;1.00
29777;DHT22;16677;52.224;7.484;2023-07-24T09:43:32;21.00;1.00
29777;DHT22;16677;52.224;7.484;2023-07-24T09:46:03;21.40;1.00
29777;DHT22;16677;52.224;7.484;2023-07-24T09:48:32;21.30;1.00
29777;DHT22;16677;52.224;7.484;2023-07-24T09:51:03;20.90;1.00
29777;DHT22;16677;52.224;7.484;2023-07-24T09:53:43;20.40;1.00
29777;DHT22;16677;52.224;7.484;2023-07-24T09:56:21;20.60;1.00
29777;DHT22;16677;52.224;7.484;2023-07-24T09:59:09;20.40;1.00
29777;DHT22;16677;52.224;7.484;2023-07-24T10:01:38;20.60;1.00
29777;DHT22;16677;52.224;7.484;2023-07-24T10:04:11;20.90;1.00
29777;DHT22;16677;52.224;7.484;2023-07-24T10:06:39;21.00;1.00
29777;DHT22;16677;52.224;7.484;2023-07-24T10:09:08;21.00;1.00
29777;DHT22;16677;52.224;7.484;2023-07-24T10:11:35;21.00;1.00
29777;DHT22;16677;52.224;7.484;2023-07-24T10:14:03;20.60;1.00
29777;DHT22;16677;52.224;7.484;2023-07-24T10:16:30;20.80;1.00
29777;DHT22;16677;52.224;7.484;2023-07-24T10:18:58;21.00;1.00
29777;DHT22;16677;52.224;7.484;2023-07-24T10:21:29;21.40;1.00
29777;DHT22;16677;52.224;7.484;2023-07-24T10:24:00;21.40;1.00
29777;DHT22;16677;52.224;7.484;2023-07-24T10:26:30;21.10;1.00
29777;DHT22;16677;52.224;7.484;2023-07-24T10:28:58;21.50;1.00
29777;DHT22;16677;52.224;7.484;2023-07-24T10:31:26;21.20;1.00
29777;DHT22;16677;52.224;7.484;2023-07-24T10:33:55;21.20;1.00
29777;DHT22;16677;52.224;7.484;2023-07-24T10:36:23;21.00;1.00
29777;DHT22;16677;52.224;7.484;2023-07-24T10:38:55;20.80;1.00
29777;DHT22;16677;52.224;7.484;2023-07-24T10:41:37;20.80;1.00
29777;DHT22;16677;52.224;7.484;2023-07-24T10:44:05;20.90;1.00
29777;DHT22;16677;52.224;7.484;2023-07-24T10:46:40;21.50;1.00
29777;DHT22;16677;52.224;7.484;2023-07-24T10:49:11;21.10;1.00
29777;DHT22;16677;52.224;7.484;2023-07-24T10:51:39;21.40;1.00
29777;DHT22;16677;52.224;7.484;2023-07-24T10:54:06;21.70;1.00
29777;DHT22;16677;52.224;7.484;2023-07-24T10:56:37;21.70;1.00
29777;DHT22;16677;52.224;7.484;2023-07-24T10:59:05;21.20;1.00
29777;DHT22;16677;52.224;7.484;2023-07-24T11:01:32;21.70;1.00
29777;DHT22;16677;52.224;7.484;2023-07-24T11:04:01;21.60;1.00
29777;DHT22;16677;52.224;7.484;2023-07-24T11:06:29;21.40;1.00
29777;DHT22;16677;52.224;7.484;2023-07-24T11:08:58;21.80;1.00
29777;DHT22;16677;52.224;7.484;2023-07-24T11:11:35;21.80;1.00
29777;DHT22;16677;52.224;7.484;2023-07-24T11:14:03;21.50;1.00
29777;DHT22;16677;52.224;7.484;2023-07-24T11:16:33;21.30;1.00
29777;DHT22;16677;52.224;7.484;2023-07-24T11:19:01;21.70;1.00
29777;DHT22;16677;52.224;7.484;2023-07-24T11:21:28;21.90;1.00
29777;DHT22;16677;52.224;7.484;2023-07-24T11:23:58;21.70;1.00
29777;DHT22;16677;52.224;7.484;2023-07-24T11:26:26;22.30;1.00
29777;DHT22;16677;52.224;7.484;2023-07-24T11:28:54;22.70;1.00
29777;DHT22;16677;52.224;7.484;2023-07-24T11:31:22;22.60;1.00
29777;DHT22;16677;52.224;7.484;2023-07-24T11:33:49;23.00;1.00
29777;DHT22;16677;52.224;7.484;2023-07-24T11:36:17;22.70;1.00
29777;DHT22;16677;52.224;7.484;2023-07-24T11:38:45;22.90;1.00
29777;DHT22;16677;52.224;7.484;2023-07-24T11:41:13;23.30;1.00
29777;DHT22;16677;52.224;7.484;2023-07-24T11:43:46;22.30;1.00
29777;DHT22;16677;52.224;7.484;2023-07-24T11:46:27;21.90;1.00
29777;DHT22;16677;52.224;7.484;2023-07-24T11:48:55;22.10;1.00
29777;DHT22;16677;52.224;7.484;2023-07-24T11:51:25;22.00;1.00
29777;DHT22;16677;52.224;7.484;2023-07-24T11:54:06;21.20;1.00
29777;DHT22;16677;52.224;7.484;2023-07-24T11:56:34;21.20;1.00
29777;DHT22;16677;52.224;7.484;2023-07-24T11:59:14;21.50;1.00
29777;DHT22;16677;52.224;7.484;2023-07-24T12:01:48;21.70;1.00
29777;DHT22;16677;52.224;7.484;2023-07-24T12:04:16;21.80;1.00
29777;DHT22;16677;52.224;7.484;2023-07-24T12:06:44;22.10;1.00
29777;DHT22;16677;52.224;7.484;2023-07-24T12:09:12;22.00;1.00
29777;DHT22;16677;52.224;7.484;2023-07-24T12:11:44;21.90;1.00
29777;DHT22;16677;52.224;7.484;2023-07-24T12:14:13;22.20;1.00
29777;DHT22;16677;52.224;7.484;2023-07-24T12:16:43;21.90;1.00
29777;DHT22;16677;52.224;7.484;2023-07-24T12:19:10;22.40;1.00
29777;DHT22;16677;52.224;7.484;2023-07-24T12:21:37;22.00;1.00
29777;DHT22;16677;52.224;7.484;2023-07-24T12:24:05;21.70;1.00
29777;DHT22;16677;52.224;7.484;2023-07-24T12:29:06;21.90;1.00
29777;DHT22;16677;52.224;7.484;2023-07-24T12:31:34;22.10;1.00
29777;DHT22;16677;52.224;7.484;2023-07-24T12:34:02;22.50;1.00
29777;DHT22;16677;52.224;7.484;2023-07-24T12:36:29;22.60;1.00
29777;DHT22;16677;52.224;7.484;2023-07-24T12:38:57;21.60;1.00
29777;DHT22;16677;52.224;7.484;2023-07-24T12:41:24;21.40;1.00
29777;DHT22;16677;52.224;7.484;2023-07-24T12:43:53;21.70;1.00
29777;DHT22;16677;52.224;7.484;2023-07-24T12:46:20;22.00;1.00
29777;DHT22;16677;52.224;7.484;2023-07-24T12:48:47;21.80;1.00
29777;DHT22;16677;52.224;7.484;2023-07-24T12:51:14;21.90;1.00
29777;DHT22;16677;52.224;7.484;2023-07-24T12:53:41;21.80;1.00
29777;DHT22;16677;52.224;7.484;2023-07-24T12:56:23;21.80;1.00
29777;DHT22;16677;52.224;7.484;2023-07-24T12:58:51;21.80;1.00
29777;DHT22;16677;52.224;7.484;2023-07-24T13:01:18;21.80;1.00
29777;DHT22;16677;52.224;7.484;2023-07-24T13:03:45;21.60;1.00
29777;DHT22;16677;52.224;7.484;2023-07-24T13:06:14;21.50;1.00
29777;DHT22;16677;52.224;7.484;2023-07-24T13:08:42;21.60;1.00
29777;DHT22;16677;52.224;7.484;2023-07-24T13:11:09;21.60;1.00
29777;DHT22;16677;52.224;7.484;2023-07-24T13:13:37;21.80;1.00
29777;DHT22;16677;52.224;7.484;2023-07-24T13:16:05;22.30;1.00
29777;DHT22;16677;52.224;7.484;2023-07-24T13:18:33;22.40;1.00
29777;DHT22;16677;52.224;7.484;2023-07-24T13:21:00;22.70;1.00
29777;DHT22;16677;52.224;7.484;2023-07-24T13:23:27;23.30;1.00
29777;DHT22;16677;52.224;7.484;2023-07-24T13:25:55;23.00;1.00
29777;DHT22;16677;52.224;7.484;2023-07-24T13:28:22;22.50;1.00
29777;DHT22;16677;52.224;7.484;2023-07-24T13:30:49;22.90;1.00
29777;DHT22;16677;52.224;7.484;2023-07-24T13:33:17;22.90;1.00
29777;DHT22;16677;52.224;7.484;2023-07-24T13:35:44;22.80;1.00
29777;DHT22;16677;52.224;7.484;2023-07-24T13:38:11;22.80;1.00
29777;DHT22;16677;52.224;7.484;2023-07-24T13:40:39;23.00;1.00
29777;DHT22;16677;52.224;7.484;2023-07-24T13:43:09;23.30;1.00
29777;DHT22;16677;52.224;7.484;2023-07-24T13:45:36;22.50;1.00
29777;DHT22;16677;52.224;7.484;2023-07-24T13:48:03;23.10;1.00
29777;DHT22;16677;52.224;7.484;2023-07-24T13:50:31;23.30;1.00
29777;DHT22;16677;52.224;7.484;2023-07-24T13:52:58;23.40;1.00
29777;DHT22;16677;52.224;7.484;2023-07-24T13:55:25;23.50;1.00
29777;DHT22;16677;52.224;7.484;2023-07-24T13:57:52;23.40;1.00
29777;DHT22;16677;52.224;7.484;2023-07-24T14:00:21;23.30;1.00
29777;DHT22;16677;52.224;7.484;2023-07-24T14:02:48;23.10;1.00
29777;DHT22;16677;52.224;7.484;2023-07-24T14:05:17;23.20;1.00
29777;DHT22;16677;52.224;7.484;2023-07-24T14:07:44;23.80;1.00
29777;DHT22;16677;52.224;7.484;2023-07-24T14:10:11;24.10;1.00
29777;DHT22;16677;52.224;7.484;2023-07-24T14:12:39;23.80;1.00
29777;DHT22;16677;52.224;7.484;2023-07-24T14:15:06;23.70;1.00
29777;DHT22;16677;52.224;7.484;2023-07-24T14:17:33;23.30;1.00
29777;DHT22;16677;52.224;7.484;2023-07-24T14:20:05;23.50;1.00
29777;DHT22;16677;52.224;7.484;2023-07-24T14:22:33;23.60;1.00
29777;DHT22;16677;52.224;7.484;2023-07-24T14:25:00;23.50;1.00
29777;DHT22;16677;52.224;7.484;2023-07-24T14:27:28;23.60;1.00
29777;DHT22;16677;52.224;7.484;2023-07-24T14:29:55;23.20;1.00
29777;DHT22;16677;52.224;7.484;2023-07-24T14:32:23;23.30;1.00
29777;DHT22;16677;52.224;7.484;2023-07-24T14:34:52;22.80;1.00
29777;DHT22;16677;52.224;7.484;2023-07-24T14:37:20;22.30;1.00
29777;DHT22;16677;52.224;7.484;2023-07-24T14:39:49;22.30;1.00
29777;DHT22;16677;52.224;7.484;2023-07-24T14:42:17;22.40;1.00
29777;DHT22;16677;52.224;7.484;2023-07-24T14:44:44;22.50;1.00
29777;DHT22;16677;52.224;7.484;2023-07-24T14:47:12;22.70;1.00
29777;DHT22;16677;52.224;7.484;2023-07-24T14:49:40;23.40;1.00
29777;DHT22;16677;52.224;7.484;2023-07-24T14:52:07;23.00;1.00
29777;DHT22;16677;52.224;7.484;2023-07-24T14:54:36;23.00;1.00
29777;DHT22;16677;52.224;7.484;2023-07-24T14:57:05;23.20;1.00
29777;DHT22;16677;52.224;7.484;2023-07-24T14:59:50;22.70;1.00
29777;DHT22;16677;52.224;7.484;2023-07-24T15:02:18;22.90;1.00
29777;DHT22;16677;52.224;7.484;2023-07-24T15:04:45;23.60;1.00
29777;DHT22;16677;52.224;7.484;2023-07-24T15:07:12;23.00;1.00
29777;DHT22;16677;52.224;7.484;2023-07-24T15:09:41;22.90;1.00
29777;DHT22;16677;52.224;7.484;2023-07-24T15:12:09;23.10;1.00
29777;DHT22;16677;52.224;7.484;2023-07-24T15:14:37;23.30;1.00
29777;DHT22;16677;52.224;7.484;2023-07-24T15:17:04;23.30;1.00
29777;DHT22;16677;52.224;7.484;2023-07-24T15:19:32;23.20;1.00
29777;DHT22;16677;52.224;7.484;2023-07-24T15:21:59;22.40;1.00
29777;DHT22;16677;52.224;7.484;2023-07-24T15:24:27;23.20;1.00
29777;DHT22;16677;52.224;7.484;2023-07-24T15:26:54;23.60;1.00
29777;DHT22;16677;52.224;7.484;2023-07-24T15:29:21;23.30;1.00
29777;DHT22;16677;52.224;7.484;2023-07-24T15:31:48;23.30;1.00
29777;DHT22;16677;52.224;7.484;2023-07-24T15:34:16;23.40;1.00
29777;DHT22;16677;52.224;7.484;2023-07-24T15:36:43;22.90;1.00
29777;DHT22;16677;52.224;7.484;2023-07-24T15:39:10;23.40;1.00
29777;DHT22;16677;52.224;7.484;2023-07-24T15:41:37;23.60;1.00
29777;DHT22;16677;52.224;7.484;2023-07-24T15:44:06;23.30;1.00
29777;DHT22;16677;52.224;7.484;2023-07-24T15:46:33;22.90;1.00
29777;DHT22;16677;52.224;7.484;2023-07-24T15:49:01;22.70;1.00
29777;DHT22;16677;52.224;7.484;2023-07-24T15:51:28;22.90;1.00
29777;DHT22;16677;52.224;7.484;2023-07-24T15:53:57;23.30;1.00
29777;DHT22;16677;52.224;7.484;2023-07-24T15:56:25;23.50;1.00